Terminal Aerodrome Forecast
Issued by NWS Portland, OR

Home | Current Version | Previous Version | Text Only | Print | Product List | Glossary On
Versions: 1 2 3 4 5 6 7 8 9 10 11 12 13 14
000
FTUS46 KPQR 271129
TAFAST
TAF
KAST 271129Z 2712/2812 25004KT 6SM BR SCT008 BKN015 OVC025
     FM271600 27007KT P6SM SCT015 BKN025
     FM271700 29010KT P6SM FEW015 SCT025
     FM272200 30013KT P6SM FEW015 SCT025
     FM280200 31010KT P6SM FEW008 SCT015
     FM280500 35004KT 5SM BR FEW004 SCT008=

USA.gov is the U.S. government's official web portal to all federal, state and local government web resources and services.